createdAt,value
2018-12-06T00:02:06.259Z,100317.89
2018-12-06T00:04:35.107Z,100319.72
2018-12-06T00:07:04.299Z,100327.17
2018-12-06T00:09:33.415Z,100314.44
2018-12-06T00:12:02.487Z,100324.97
2018-12-06T00:14:31.292Z,100332.01
2018-12-06T00:17:00.416Z,100338.97
2018-12-06T00:19:30.978Z,100335.48
2018-12-06T00:22:00.216Z,100333.73
2018-12-06T00:24:29.719Z,100326.73
2018-12-06T00:26:59.229Z,100337.66
2018-12-06T00:29:28.739Z,100335.91
2018-12-06T00:31:57.511Z,100340.77
2018-12-06T00:34:26.815Z,100344.70
2018-12-06T00:36:56.010Z,100341.67
2018-12-06T00:39:25.211Z,100343.39
2018-12-06T00:41:54.087Z,100343.36
2018-12-06T00:44:23.094Z,100347.77
2018-12-06T00:46:52.295Z,100350.54
2018-12-06T00:49:21.392Z,100360.09
2018-12-06T00:51:50.240Z,100347.47
2018-12-06T00:54:19.374Z,100353.05
2018-12-06T00:56:48.223Z,100347.92
2018-12-06T00:59:17.287Z,100358.92
2018-12-06T01:01:46.357Z,100352.34
2018-12-06T01:04:15.227Z,100351.41
2018-12-06T01:06:44.340Z,100346.61
2018-12-06T01:09:13.110Z,100350.05
2018-12-06T01:11:42.425Z,100343.54
2018-12-06T01:14:11.687Z,100362.75
2018-12-06T01:16:40.827Z,100353.98
2018-12-06T01:19:09.645Z,100350.47
2018-12-06T01:21:38.955Z,100343.91
2018-12-06T01:24:08.135Z,100353.54
2018-12-06T01:26:37.263Z,100348.33
2018-12-06T01:29:06.304Z,100347.36
2018-12-06T01:31:36.329Z,100346.91
2018-12-06T01:34:05.439Z,100349.12
2018-12-06T01:36:34.723Z,100348.64
2018-12-06T01:39:05.247Z,100349.05
2018-12-06T01:41:34.491Z,100351.25
2018-12-06T01:44:03.570Z,100345.12
2018-12-06T01:46:32.412Z,100352.53
2018-12-06T01:49:01.735Z,100341.59
2018-12-06T01:51:30.791Z,100347.36
2018-12-06T01:54:00.235Z,100348.27
2018-12-06T01:56:29.115Z,100339.02
2018-12-06T01:58:58.074Z,100340.77
2018-12-06T02:01:27.271Z,100341.59
2018-12-06T02:03:56.211Z,100346.88
2018-12-06T02:06:25.060Z,100337.33
2018-12-06T02:08:53.937Z,100336.42
2018-12-06T02:11:23.187Z,100345.12
2018-12-06T02:13:52.178Z,100340.73
2018-12-06T02:16:20.971Z,100341.70
2018-12-06T02:18:50.067Z,100341.74
2018-12-06T02:21:19.163Z,100342.05
2018-12-06T02:23:47.894Z,100336.34
2018-12-06T02:26:17.042Z,100340.28
2018-12-06T02:28:46.346Z,100339.84
2018-12-06T02:31:15.554Z,100350.39
2018-12-06T02:33:44.644Z,100346.42
2018-12-06T02:36:13.750Z,100348.59
2018-12-06T02:38:42.887Z,100348.59
2018-12-06T02:41:11.715Z,100341.70
2018-12-06T02:43:40.571Z,100342.56
2018-12-06T02:46:09.815Z,100339.53
2018-12-06T02:48:38.912Z,100345.30
2018-12-06T02:51:07.785Z,100345.75
2018-12-06T02:53:36.672Z,100348.22
2018-12-06T02:56:05.758Z,100344.33
2018-12-06T02:58:34.737Z,100347.88
2018-12-06T03:01:04.288Z,100340.43
2018-12-06T03:03:33.495Z,100346.53
2018-12-06T03:06:02.998Z,100347.88
2018-12-06T03:08:31.972Z,100347.88
2018-12-06T03:11:01.047Z,100346.61
2018-12-06T03:13:30.180Z,100343.20
2018-12-06T03:15:59.218Z,100350.20
2018-12-06T03:18:28.489Z,100352.41
2018-12-06T03:20:57.696Z,100341.52
2018-12-06T03:23:26.561Z,100348.06
2018-12-06T03:25:55.759Z,100352.93
2018-12-06T03:28:24.973Z,100352.45
2018-12-06T03:30:54.467Z,100348.58
2018-12-06T03:33:23.341Z,100355.06
2018-12-06T03:35:52.252Z,100357.72
2018-12-06T03:38:21.522Z,100360.75
2018-12-06T03:40:50.954Z,100363.45
2018-12-06T03:43:19.787Z,100368.20
2018-12-06T03:45:48.944Z,100360.75
2018-12-06T03:48:18.048Z,100362.52
2018-12-06T03:50:47.094Z,100363.00
2018-12-06T03:53:15.921Z,100367.34
2018-12-06T03:55:45.386Z,100367.83
2018-12-06T03:58:14.547Z,100371.83
2018-12-06T04:00:43.384Z,100374.45
2018-12-06T04:03:12.407Z,100375.83
2018-12-06T04:05:41.633Z,100374.97
2018-12-06T04:08:10.450Z,100370.17
2018-12-06T04:10:39.314Z,100372.86
2018-12-06T04:13:08.255Z,100379.06
2018-12-06T04:15:37.176Z,100372.00
2018-12-06T04:18:06.268Z,100380.41
2018-12-06T04:20:35.096Z,100376.61
2018-12-06T04:23:04.356Z,100374.92
2018-12-06T04:25:33.963Z,100372.23
2018-12-06T04:28:03.210Z,100379.67
2018-12-06T04:30:32.080Z,100374.92
2018-12-06T04:33:01.259Z,100375.87
2018-12-06T04:35:30.174Z,100389.00
2018-12-06T04:37:59.350Z,100396.03
2018-12-06T04:40:28.247Z,100393.70
2018-12-06T04:42:57.308Z,100394.69
2018-12-06T04:45:26.152Z,100398.17
2018-12-06T04:47:54.987Z,100408.64
2018-12-06T04:50:24.048Z,100407.37
2018-12-06T04:52:52.848Z,100408.77
2018-12-06T04:55:21.984Z,100403.59
2018-12-06T04:57:50.992Z,100407.52
2018-12-06T05:00:19.834Z,100407.08
2018-12-06T05:02:48.972Z,100410.55
2018-12-06T05:05:18.199Z,100411.42
2018-12-06T05:07:46.970Z,100404.84
2018-12-06T05:10:16.057Z,100413.59
2018-12-06T05:12:45.360Z,100421.36
2018-12-06T05:15:14.233Z,100413.20
2018-12-06T05:17:43.440Z,100417.99
2018-12-06T05:20:12.527Z,100420.64
2018-12-06T05:22:41.972Z,100421.09
2018-12-06T05:25:11.159Z,100426.77
2018-12-06T05:27:40.064Z,100424.16
2018-12-06T05:30:08.879Z,100421.95
2018-12-06T05:32:37.728Z,100431.05
2018-12-06T05:35:07.423Z,100431.00
2018-12-06T05:37:36.643Z,100432.40
2018-12-06T05:40:06.402Z,100435.02
2018-12-06T05:42:35.422Z,100435.94
2018-12-06T05:45:04.708Z,100438.14
2018-12-06T05:47:33.640Z,100432.93
2018-12-06T05:50:02.716Z,100431.17
2018-12-06T05:52:31.841Z,100429.45
2018-12-06T05:55:00.687Z,100429.03
2018-12-06T05:57:30.555Z,100438.61
2018-12-06T05:59:59.510Z,100430.37
2018-12-06T06:02:28.294Z,100441.70
2018-12-06T06:04:57.216Z,100448.20
2018-12-06T06:07:26.840Z,100447.84
2018-12-06T06:09:55.716Z,100448.25
2018-12-06T06:12:24.530Z,100455.16
2018-12-06T06:14:53.379Z,100454.74
2018-12-06T06:17:22.500Z,100457.33
2018-12-06T06:19:52.275Z,100459.95
2018-12-06T06:22:21.732Z,100458.20
2018-12-06T06:24:51.122Z,100459.92
2018-12-06T06:27:20.200Z,100467.84
2018-12-06T06:29:49.963Z,100467.00
2018-12-06T06:32:19.271Z,100469.56
2018-12-06T06:34:48.517Z,100478.31
2018-12-06T06:37:17.459Z,100478.64
2018-12-06T06:39:46.516Z,100479.89
2018-12-06T06:42:15.346Z,100475.94
2018-12-06T06:44:44.430Z,100477.19
2018-12-06T06:47:13.563Z,100479.44
2018-12-06T06:49:42.476Z,100476.05
2018-12-06T06:52:11.653Z,100474.27
2018-12-06T06:54:40.671Z,100469.36
2018-12-06T06:57:09.731Z,100477.52
2018-12-06T06:59:39.159Z,100478.35
2018-12-06T07:02:08.339Z,100479.54
2018-12-06T07:04:37.251Z,100476.83
2018-12-06T07:07:06.339Z,100473.73
2018-12-06T07:09:35.536Z,100470.16
2018-12-06T07:12:04.724Z,100469.13
2018-12-06T07:14:33.656Z,100466.45
2018-12-06T07:17:04.110Z,100469.45
2018-12-06T07:19:33.447Z,100472.08
2018-12-06T07:22:02.641Z,100467.73
2018-12-06T07:24:31.479Z,100469.80
2018-12-06T07:27:00.263Z,100473.63
2018-12-06T07:29:29.524Z,100467.59
2018-12-06T07:31:58.779Z,100472.39
2018-12-06T07:34:27.651Z,100471.59
2018-12-06T07:36:57.032Z,100476.39
2018-12-06T07:39:26.321Z,100478.08
2018-12-06T07:41:55.514Z,100482.30
2018-12-06T07:44:24.729Z,100482.09
2018-12-06T07:46:53.908Z,100486.34
2018-12-06T07:49:22.783Z,100485.38
2018-12-06T07:51:51.891Z,100488.41
2018-12-06T07:54:21.090Z,100485.82
2018-12-06T07:56:50.303Z,100490.89
2018-12-06T07:59:19.673Z,100486.16
2018-12-06T08:01:49.522Z,100490.38
2018-12-06T08:04:18.400Z,100493.93
2018-12-06T08:06:47.602Z,100491.81
2018-12-06T08:09:16.468Z,100491.66
2018-12-06T08:11:45.332Z,100490.98
2018-12-06T08:14:14.591Z,100485.17
2018-12-06T08:16:44.229Z,100483.92
2018-12-06T08:19:14.070Z,100481.02
2018-12-06T08:21:43.432Z,100483.22
2018-12-06T08:24:12.275Z,100486.95
2018-12-06T08:26:41.071Z,100485.93
2018-12-06T08:29:10.187Z,100484.84
2018-12-06T08:31:39.384Z,100483.17
2018-12-06T08:34:08.261Z,100482.03
2018-12-06T08:36:37.097Z,100483.62
2018-12-06T08:39:08.271Z,100482.52
2018-12-06T08:41:37.499Z,100481.77
2018-12-06T08:44:07.510Z,100488.73
2018-12-06T08:46:36.727Z,100491.61
2018-12-06T08:49:06.169Z,100484.48
2018-12-06T08:51:35.417Z,100487.47
2018-12-06T08:54:04.293Z,100488.16
2018-12-06T08:56:33.632Z,100478.11
2018-12-06T08:59:02.948Z,100472.30
2018-12-06T09:01:32.027Z,100474.98
2018-12-06T09:04:01.213Z,100483.84
2018-12-06T09:06:30.145Z,100486.16
2018-12-06T09:08:59.505Z,100475.64
2018-12-06T09:11:28.769Z,100468.15
2018-12-06T09:13:57.900Z,100482.22
2018-12-06T09:16:26.959Z,100481.77
2018-12-06T09:18:56.108Z,100473.20
2018-12-06T09:21:25.187Z,100469.30
2018-12-06T09:23:54.279Z,100473.48
2018-12-06T09:26:23.531Z,100479.88
2018-12-06T09:28:52.765Z,100478.63
2018-12-06T09:31:22.116Z,100480.83
2018-12-06T09:34:06.076Z,100472.11
2018-12-06T09:36:35.343Z,100467.73
2018-12-06T09:39:05.239Z,100460.77
2018-12-06T09:41:34.273Z,100456.02
2018-12-06T09:44:03.837Z,100462.36
2018-12-06T09:46:35.493Z,100468.83
2018-12-06T09:49:05.746Z,100464.99
2018-12-06T09:51:35.431Z,100463.08
2018-12-06T09:54:04.635Z,100457.41
2018-12-06T09:56:33.507Z,100456.98
2018-12-06T09:59:02.783Z,100455.22
2018-12-06T10:01:32.142Z,100451.55
2018-12-06T10:04:00.975Z,100457.79
2018-12-06T10:06:30.110Z,100446.00
2018-12-06T10:08:59.204Z,100446.31
2018-12-06T10:11:28.114Z,100444.23
2018-12-06T10:13:57.291Z,100433.91
2018-12-06T10:16:26.260Z,100430.34
2018-12-06T10:18:55.499Z,100437.63
2018-12-06T10:21:24.479Z,100428.89
2018-12-06T10:23:53.678Z,100418.45
2018-12-06T10:26:22.792Z,100415.68
2018-12-06T10:28:51.705Z,100411.68
2018-12-06T10:31:20.699Z,100413.59
2018-12-06T10:33:49.507Z,100405.59
2018-12-06T10:36:18.648Z,100401.95
2018-12-06T10:38:47.906Z,100403.91
2018-12-06T10:41:16.723Z,100403.79
2018-12-06T10:43:45.839Z,100400.72
2018-12-06T10:46:14.743Z,100392.09
2018-12-06T10:48:44.023Z,100399.61
2018-12-06T10:51:24.184Z,100383.69
2018-12-06T10:53:53.992Z,100387.72
2018-12-06T10:56:22.922Z,100381.17
2018-12-06T10:58:51.772Z,100378.65
2018-12-06T11:01:25.760Z,100376.64
2018-12-06T11:04:01.916Z,100375.56
2018-12-06T11:06:30.935Z,100382.41
2018-12-06T11:09:00.280Z,100375.27
2018-12-06T11:11:29.448Z,100379.46
2018-12-06T11:13:58.644Z,100384.36
2018-12-06T11:16:27.521Z,100376.58
2018-12-06T11:18:56.698Z,100371.16
2018-12-06T11:21:26.169Z,100375.22
2018-12-06T11:23:55.132Z,100367.38
2018-12-06T11:26:23.991Z,100367.13
2018-12-06T11:28:53.210Z,100365.19
2018-12-06T11:31:22.472Z,100366.61
2018-12-06T11:33:51.628Z,100363.73
2018-12-06T11:36:20.911Z,100352.32
2018-12-06T11:38:50.115Z,100354.88
2018-12-06T11:41:19.240Z,100355.05
2018-12-06T11:43:48.312Z,100356.06
2018-12-06T11:46:17.404Z,100352.14
2018-12-06T11:48:46.700Z,100349.44
2018-12-06T11:51:15.634Z,100343.16
2018-12-06T11:53:44.520Z,100341.39
2018-12-06T11:56:13.667Z,100339.23
2018-12-06T11:58:42.732Z,100335.33
2018-12-06T12:01:11.810Z,100337.38
2018-12-06T12:03:40.875Z,100330.08
2018-12-06T12:06:10.094Z,100339.88
2018-12-06T12:08:39.730Z,100336.10
2018-12-06T12:11:08.975Z,100338.18
2018-12-06T12:13:38.571Z,100334.40
2018-12-06T12:16:07.775Z,100328.64
2018-12-06T12:18:36.970Z,100336.13
2018-12-06T12:21:06.275Z,100335.37
2018-12-06T12:23:35.571Z,100336.23
2018-12-06T12:26:04.578Z,100338.86
2018-12-06T12:28:33.769Z,100336.57
2018-12-06T12:31:03.046Z,100334.38
2018-12-06T12:33:31.923Z,100337.26
2018-12-06T12:36:01.047Z,100332.70
2018-12-06T12:38:29.830Z,100336.81
2018-12-06T12:40:59.189Z,100335.13
2018-12-06T12:43:28.335Z,100332.50
2018-12-06T12:45:57.444Z,100330.33
2018-12-06T12:48:26.399Z,100334.42
2018-12-06T12:50:55.667Z,100327.30
2018-12-06T12:53:24.831Z,100329.76
2018-12-06T12:55:53.971Z,100327.42
2018-12-06T12:58:23.224Z,100325.28
2018-12-06T13:00:52.676Z,100320.25
2018-12-06T13:03:21.936Z,100321.25
2018-12-06T13:05:50.896Z,100320.53
2018-12-06T13:08:20.123Z,100319.92
2018-12-06T13:10:49.384Z,100317.53
2018-12-06T13:13:18.536Z,100309.06
2018-12-06T13:15:47.821Z,100313.27
2018-12-06T13:18:16.762Z,100308.84
2018-12-06T13:20:46.224Z,100313.92
2018-12-06T13:23:15.868Z,100309.28
2018-12-06T13:25:45.108Z,100315.15
2018-12-06T13:28:14.634Z,100321.05
2018-12-06T13:30:44.139Z,100315.77
2018-12-06T13:33:13.344Z,100318.69
2018-12-06T13:35:42.527Z,100321.39
2018-12-06T13:38:12.138Z,100317.12
2018-12-06T13:40:41.235Z,100318.92
2018-12-06T13:43:10.170Z,100321.15
2018-12-06T13:45:39.067Z,100321.55
2018-12-06T13:48:07.933Z,100315.00
2018-12-06T13:50:37.003Z,100320.05
2018-12-06T13:53:05.879Z,100320.23
2018-12-06T13:55:35.100Z,100317.05
2018-12-06T13:58:04.313Z,100311.67
2018-12-06T14:00:33.662Z,100317.32
2018-12-06T14:03:02.960Z,100316.81
2018-12-06T14:05:31.727Z,100315.09
2018-12-06T14:08:01.076Z,100312.74
2018-12-06T14:10:29.999Z,100312.74
2018-12-06T14:12:59.420Z,100311.09
2018-12-06T14:15:28.275Z,100313.52
2018-12-06T14:17:57.889Z,100320.95
2018-12-06T14:20:27.187Z,100314.16
2018-12-06T14:22:56.126Z,100320.41
2018-12-06T14:25:25.399Z,100327.75
2018-12-06T14:27:54.340Z,100313.80
2018-12-06T14:30:23.458Z,100313.03
2018-12-06T14:32:52.539Z,100317.40
2018-12-06T14:35:21.759Z,100315.77
2018-12-06T14:37:50.957Z,100315.98
2018-12-06T14:40:20.156Z,100313.30
2018-12-06T14:42:49.903Z,100307.30
2018-12-06T14:45:18.916Z,100315.28
2018-12-06T14:47:48.051Z,100317.63
2018-12-06T14:50:17.260Z,100319.95
2018-12-06T14:52:46.139Z,100322.52
2018-12-06T14:55:15.334Z,100322.93
2018-12-06T14:57:44.243Z,100321.73
2018-12-06T15:00:13.675Z,100324.95
2018-12-06T15:02:42.539Z,100334.27
2018-12-06T15:05:12.053Z,100337.82
2018-12-06T15:07:41.229Z,100334.80
2018-12-06T15:10:10.527Z,100340.11
2018-12-06T15:12:39.777Z,100337.11
2018-12-06T15:15:08.826Z,100338.47
2018-12-06T15:17:37.963Z,100330.77
2018-12-06T15:20:07.539Z,100337.30
2018-12-06T15:22:36.748Z,100339.95
2018-12-06T15:25:06.713Z,100340.92
2018-12-06T15:27:35.758Z,100352.31
2018-12-06T15:30:05.072Z,100356.76
2018-12-06T15:32:34.309Z,100354.17
2018-12-06T15:35:03.939Z,100358.52
2018-12-06T15:37:33.032Z,100360.67
2018-12-06T15:40:02.152Z,100362.13
2018-12-06T15:42:31.149Z,100361.72
2018-12-06T15:44:59.899Z,100367.34
2018-12-06T15:47:29.429Z,100363.42
2018-12-06T15:49:58.643Z,100370.39
2018-12-06T15:52:27.823Z,100375.73
2018-12-06T15:54:57.026Z,100380.09
2018-12-06T15:57:26.116Z,100380.61
2018-12-06T15:59:55.017Z,100381.56
2018-12-06T16:02:24.204Z,100383.33
2018-12-06T16:04:53.095Z,100373.84
2018-12-06T16:07:22.621Z,100383.41
2018-12-06T16:09:51.704Z,100385.14
2018-12-06T16:12:20.920Z,100378.21
2018-12-06T16:14:49.793Z,100383.48
2018-12-06T16:17:18.889Z,100386.95
2018-12-06T16:19:47.803Z,100390.39
2018-12-06T16:22:17.084Z,100395.19
2018-12-06T16:24:46.384Z,100394.34
2018-12-06T16:27:47.592Z,100400.08
2018-12-06T16:30:16.869Z,100397.20
2018-12-06T16:32:46.018Z,100400.25
2018-12-06T16:35:15.133Z,100401.19
2018-12-06T16:37:44.447Z,100404.63
2018-12-06T16:40:13.745Z,100404.27
2018-12-06T16:42:42.906Z,100402.50
2018-12-06T16:45:12.219Z,100410.78
2018-12-06T16:47:41.374Z,100406.87
2018-12-06T16:50:10.880Z,100411.28
2018-12-06T16:52:40.145Z,100410.45
2018-12-06T16:55:09.754Z,100411.29
2018-12-06T16:57:38.727Z,100414.39
2018-12-06T17:00:12.332Z,100414.80
2018-12-06T17:02:41.456Z,100417.43
2018-12-06T17:05:10.722Z,100415.66
2018-12-06T17:07:39.834Z,100427.40
2018-12-06T17:10:09.432Z,100426.98
2018-12-06T17:12:38.747Z,100425.25
2018-12-06T17:15:08.551Z,100427.80
2018-12-06T17:17:37.672Z,100433.00
2018-12-06T17:20:07.604Z,100438.64
2018-12-06T17:22:36.868Z,100439.52
2018-12-06T17:25:06.724Z,100449.92
2018-12-06T17:27:35.903Z,100451.63
2018-12-06T17:30:06.081Z,100456.80
2018-12-06T17:32:35.127Z,100455.94
2018-12-06T17:35:04.757Z,100453.25
2018-12-06T17:37:33.979Z,100457.13
2018-12-06T17:40:03.238Z,100461.09
2018-12-06T17:42:32.379Z,100461.53
2018-12-06T17:45:01.616Z,100465.88
2018-12-06T17:47:31.129Z,100471.14
2018-12-06T17:50:00.297Z,100473.78
2018-12-06T17:52:29.571Z,100471.17
2018-12-06T17:54:59.248Z,100474.22
2018-12-06T17:57:28.314Z,100480.29
2018-12-06T17:59:57.485Z,100483.77
2018-12-06T18:02:26.691Z,100479.86
2018-12-06T18:04:55.985Z,100476.84
2018-12-06T18:07:24.789Z,100476.45
2018-12-06T18:09:53.878Z,100489.48
2018-12-06T18:12:23.053Z,100483.84
2018-12-06T18:14:52.062Z,100489.94
2018-12-06T18:17:22.513Z,100488.61
2018-12-06T18:19:51.606Z,100489.48
2018-12-06T18:22:20.588Z,100489.95
2018-12-06T18:24:49.779Z,100484.73
2018-12-06T18:27:19.083Z,100488.63
2018-12-06T18:29:48.028Z,100482.59
2018-12-06T18:32:17.223Z,100484.34
2018-12-06T18:34:46.467Z,100490.39
2018-12-06T18:37:16.085Z,100486.48
2018-12-06T18:39:44.959Z,100489.97
2018-12-06T18:42:14.055Z,100487.81
2018-12-06T18:44:42.932Z,100494.75
2018-12-06T18:47:12.061Z,100488.69
2018-12-06T18:49:41.167Z,100487.80
2018-12-06T18:52:10.344Z,100490.41
2018-12-06T18:54:39.209Z,100488.23
2018-12-06T18:57:08.818Z,100486.52
2018-12-06T18:59:37.925Z,100491.26
2018-12-06T19:02:06.959Z,100491.70
2018-12-06T19:04:36.023Z,100493.00
2018-12-06T19:07:04.955Z,100492.13
2018-12-06T19:09:34.115Z,100487.80
2018-12-06T19:12:02.894Z,100483.05
2018-12-06T19:14:32.004Z,100490.02
2018-12-06T19:17:01.036Z,100487.81
2018-12-06T19:19:30.272Z,100491.72
2018-12-06T19:21:59.238Z,100488.28
2018-12-06T19:24:28.168Z,100483.06
2018-12-06T19:26:57.808Z,100485.67
2018-12-06T19:29:27.023Z,100482.63
2018-12-06T19:31:55.860Z,100486.97
2018-12-06T19:34:24.746Z,100487.81
2018-12-06T19:36:53.768Z,100489.58
2018-12-06T19:39:23.080Z,100490.88
2018-12-06T19:41:52.268Z,100491.74
2018-12-06T19:44:21.077Z,100495.22
2018-12-06T19:46:49.940Z,100495.64
2018-12-06T19:49:19.478Z,100493.91
2018-12-06T19:51:48.315Z,100496.52
2018-12-06T19:54:17.579Z,100496.08
2018-12-06T19:56:46.357Z,100495.20
2018-12-06T19:59:15.827Z,100501.70
2018-12-06T20:01:45.349Z,100499.55
2018-12-06T20:04:15.053Z,100502.55
2018-12-06T20:06:44.650Z,100505.16
2018-12-06T20:09:14.115Z,100506.45
2018-12-06T20:11:43.397Z,100510.81
2018-12-06T20:14:12.549Z,100509.94
2018-12-06T20:16:42.224Z,100511.22
2018-12-06T20:19:11.104Z,100514.27
2018-12-06T20:21:40.052Z,100508.19
2018-12-06T20:24:09.157Z,100519.48
2018-12-06T20:26:38.020Z,100521.66
2018-12-06T20:29:07.131Z,100530.75
2018-12-06T20:31:37.043Z,100534.23
2018-12-06T20:34:05.931Z,100531.20
2018-12-06T20:36:34.746Z,100535.09
2018-12-06T20:39:04.678Z,100536.41
2018-12-06T20:41:33.800Z,100540.73
2018-12-06T20:44:02.960Z,100539.00
2018-12-06T20:46:31.826Z,100545.09
2018-12-06T20:49:00.686Z,100542.05
2018-12-06T20:51:29.591Z,100549.02
2018-12-06T20:53:58.712Z,100548.14
2018-12-06T20:56:27.527Z,100552.03
2018-12-06T20:58:56.719Z,100560.27
2018-12-06T21:01:25.671Z,100563.27
2018-12-06T21:03:54.583Z,100558.95
2018-12-06T21:06:23.679Z,100558.48
2018-12-06T21:08:52.977Z,100553.27
2018-12-06T21:11:22.170Z,100557.16
2018-12-06T21:13:51.196Z,100563.63
2018-12-06T21:16:20.364Z,100566.23
2018-12-06T21:18:49.228Z,100572.30
2018-12-06T21:21:18.346Z,100561.00
2018-12-06T21:23:47.452Z,100567.50
2018-12-06T21:26:16.304Z,100567.50
2018-12-06T21:28:45.199Z,100564.86
2018-12-06T21:31:14.523Z,100568.77
2018-12-06T21:33:43.733Z,100566.16
2018-12-06T21:36:12.933Z,100557.94
2018-12-06T21:38:42.018Z,100560.13
2018-12-06T21:41:11.205Z,100558.40
2018-12-06T21:43:40.426Z,100557.53
2018-12-06T21:46:09.528Z,100554.94
2018-12-06T21:48:38.406Z,100556.67
2018-12-06T21:51:07.504Z,100552.77
2018-12-06T21:53:36.316Z,100554.06
2018-12-06T21:56:05.997Z,100553.16
2018-12-06T21:58:36.135Z,100554.03
2018-12-06T22:01:05.328Z,100560.09
2018-12-06T22:03:34.232Z,100558.40
2018-12-06T22:06:03.516Z,100558.40
2018-12-06T22:08:32.415Z,100551.91
2018-12-06T22:11:01.513Z,100547.57
2018-12-06T22:13:30.610Z,100558.87
2018-12-06T22:15:59.482Z,100556.27
2018-12-06T22:18:28.317Z,100534.63
2018-12-06T22:20:57.586Z,100544.59
2018-12-06T22:23:26.675Z,100547.22
2018-12-06T22:25:55.651Z,100542.02
2018-12-06T22:28:24.772Z,100543.31
2018-12-06T22:30:53.671Z,100549.39
2018-12-06T22:33:22.750Z,100551.11
2018-12-06T22:35:51.948Z,100550.25
2018-12-06T22:38:20.771Z,100547.65
2018-12-06T22:40:49.969Z,100547.64
2018-12-06T22:43:19.370Z,100550.68
2018-12-06T22:48:41.218Z,100546.34
2018-12-06T22:51:10.490Z,100539.44
2018-12-06T22:53:40.265Z,100532.91
2018-12-06T22:56:09.500Z,100538.98
2018-12-06T22:58:38.467Z,100530.75
2018-12-06T23:01:10.032Z,100533.75
2018-12-06T23:03:39.139Z,100532.89
2018-12-06T23:06:08.227Z,100536.33
2018-12-06T23:08:37.819Z,100536.77
2018-12-06T23:11:07.017Z,100530.70
2018-12-06T23:13:36.555Z,100532.00
2018-12-06T23:16:05.869Z,100525.93
2018-12-06T23:18:35.160Z,100519.00
2018-12-06T23:21:04.669Z,100516.39
2018-12-06T23:23:33.581Z,100516.41
2018-12-06T23:26:02.518Z,100520.30
2018-12-06T23:28:31.638Z,100517.27
2018-12-06T23:31:00.662Z,100519.44
2018-12-06T23:33:32.166Z,100508.60
2018-12-06T23:36:00.764Z,100517.27
2018-12-06T23:38:29.865Z,100516.84
2018-12-06T23:40:58.730Z,100509.01
2018-12-06T23:43:27.961Z,100508.14
2018-12-06T23:45:57.150Z,100506.38
2018-12-06T23:48:26.050Z,100508.98
2018-12-06T23:52:01.671Z,100505.08
2018-12-06T23:54:30.789Z,100501.19
2018-12-06T23:56:59.807Z,100505.08
2018-12-06T23:59:29.441Z,100505.48
